sensor_id;sensor_type;location;lat;lon;timestamp;pressure;altitude;pressure_sealevel;temperature;humidity
68859;BME280;55864;49.238;8.092;2023-05-24T00:01:52;99813.16;;;15.33;56.68
68859;BME280;55864;49.238;8.092;2023-05-24T00:03:53;99817.81;;;15.31;56.65
68859;BME280;55864;49.238;8.092;2023-05-24T00:05:54;99810.84;;;15.30;56.52
68859;BME280;55864;49.238;8.092;2023-05-24T00:07:55;99806.72;;;15.27;56.29
68859;BME280;55864;49.238;8.092;2023-05-24T00:09:56;99809.22;;;15.45;56.17
68859;BME280;55864;49.238;8.092;2023-05-24T00:11:57;99803.59;;;15.96;54.55
68859;BME280;55864;49.238;8.092;2023-05-24T00:13:57;99809.59;;;16.53;52.49
68859;BME280;55864;49.238;8.092;2023-05-24T00:15:58;99808.34;;;16.79;51.90
68859;BME280;55864;49.238;8.092;2023-05-24T00:17:58;99806.91;;;16.69;51.90
68859;BME280;55864;49.238;8.092;2023-05-24T00:19:59;99806.47;;;16.49;52.08
68859;BME280;55864;49.238;8.092;2023-05-24T00:21:59;99803.69;;;16.35;53.06
68859;BME280;55864;49.238;8.092;2023-05-24T00:24:02;99802.72;;;16.20;53.35
68859;BME280;55864;49.238;8.092;2023-05-24T00:26:02;99811.03;;;16.00;53.56
68859;BME280;55864;49.238;8.092;2023-05-24T00:28:03;99806.59;;;15.85;53.77
68859;BME280;55864;49.238;8.092;2023-05-24T00:30:05;99808.41;;;15.68;53.91
68859;BME280;55864;49.238;8.092;2023-05-24T00:32:05;99800.28;;;15.62;54.75
68859;BME280;55864;49.238;8.092;2023-05-24T00:34:06;99797.16;;;15.50;55.01
68859;BME280;55864;49.238;8.092;2023-05-24T00:36:07;99805.91;;;15.43;55.17
68859;BME280;55864;49.238;8.092;2023-05-24T00:38:07;99805.38;;;15.39;55.27
68859;BME280;55864;49.238;8.092;2023-05-24T00:40:10;99797.44;;;15.31;55.37
68859;BME280;55864;49.238;8.092;2023-05-24T00:42:10;99801.25;;;15.29;55.34
68859;BME280;55864;49.238;8.092;2023-05-24T00:44:11;99795.47;;;15.25;55.46
68859;BME280;55864;49.238;8.092;2023-05-24T00:46:15;99798.25;;;15.24;55.69
68859;BME280;55864;49.238;8.092;2023-05-24T00:48:16;99791.78;;;15.18;55.74
68859;BME280;55864;49.238;8.092;2023-05-24T00:50:17;99787.81;;;15.14;55.52
68859;BME280;55864;49.238;8.092;2023-05-24T00:52:18;99779.53;;;15.09;55.27
68859;BME280;55864;49.238;8.092;2023-05-24T00:54:19;99780.22;;;15.11;55.45
68859;BME280;55864;49.238;8.092;2023-05-24T00:56:21;99772.28;;;15.11;56.00
68859;BME280;55864;49.238;8.092;2023-05-24T00:58:21;99777.72;;;15.09;55.57
68859;BME280;55864;49.238;8.092;2023-05-24T01:00:22;99775.25;;;15.08;56.20
68859;BME280;55864;49.238;8.092;2023-05-24T01:02:26;99772.91;;;15.05;55.71
68859;BME280;55864;49.238;8.092;2023-05-24T01:04:26;99771.59;;;15.01;55.32
68859;BME280;55864;49.238;8.092;2023-05-24T01:06:27;99769.28;;;14.98;55.35
68859;BME280;55864;49.238;8.092;2023-05-24T01:08:42;99772.41;;;14.93;55.12
68859;BME280;55864;49.238;8.092;2023-05-24T01:10:49;99775.03;;;14.85;55.27
68859;BME280;55864;49.238;8.092;2023-05-24T01:12:58;99764.94;;;14.81;54.74
68859;BME280;55864;49.238;8.092;2023-05-24T01:15:07;99772.69;;;14.74;55.14
68859;BME280;55864;49.238;8.092;2023-05-24T01:17:18;99764.25;;;14.71;55.35
68859;BME280;55864;49.238;8.092;2023-05-24T01:19:51;99779.13;;;14.72;55.71
68859;BME280;55864;49.238;8.092;2023-05-24T01:21:58;99785.22;;;14.72;56.28
68859;BME280;55864;49.238;8.092;2023-05-24T01:24:09;99784.06;;;14.67;55.50
68859;BME280;55864;49.238;8.092;2023-05-24T01:26:18;99786.56;;;14.68;55.27
68859;BME280;55864;49.238;8.092;2023-05-24T01:28:21;99779.44;;;14.69;55.80
68859;BME280;55864;49.238;8.092;2023-05-24T01:30:27;99777.47;;;14.71;56.29
68859;BME280;55864;49.238;8.092;2023-05-24T01:32:30;99781.94;;;14.70;55.86
68859;BME280;55864;49.238;8.092;2023-05-24T01:34:31;99790.69;;;14.71;55.74
68859;BME280;55864;49.238;8.092;2023-05-24T01:36:31;99780.09;;;14.71;55.21
68859;BME280;55864;49.238;8.092;2023-05-24T01:38:32;99787.69;;;14.66;55.19
68859;BME280;55864;49.238;8.092;2023-05-24T01:40:32;99792.81;;;14.67;55.51
68859;BME280;55864;49.238;8.092;2023-05-24T01:42:39;99794.78;;;14.65;55.53
68859;BME280;55864;49.238;8.092;2023-05-24T01:44:48;99789.34;;;14.59;54.09
68859;BME280;55864;49.238;8.092;2023-05-24T01:47:01;99793.13;;;14.56;55.18
68859;BME280;55864;49.238;8.092;2023-05-24T01:49:15;99788.50;;;14.58;55.13
68859;BME280;55864;49.238;8.092;2023-05-24T01:51:18;99801.22;;;14.55;55.22
68859;BME280;55864;49.238;8.092;2023-05-24T01:53:23;99794.41;;;14.52;55.08
68859;BME280;55864;49.238;8.092;2023-05-24T01:55:26;99807.81;;;14.51;56.08
68859;BME280;55864;49.238;8.092;2023-05-24T01:57:27;99800.72;;;14.51;56.37
68859;BME280;55864;49.238;8.092;2023-05-24T01:59:29;99799.66;;;14.44;55.64
68859;BME280;55864;49.238;8.092;2023-05-24T02:01:33;99808.94;;;14.48;56.16
68859;BME280;55864;49.238;8.092;2023-05-24T02:03:35;99805.31;;;14.49;55.80
68859;BME280;55864;49.238;8.092;2023-05-24T02:05:37;99803.16;;;14.45;55.17
68859;BME280;55864;49.238;8.092;2023-05-24T02:07:39;99803.16;;;14.45;55.21
68859;BME280;55864;49.238;8.092;2023-05-24T02:09:40;99807.47;;;14.46;55.45
68859;BME280;55864;49.238;8.092;2023-05-24T02:11:40;99811.91;;;14.45;55.37
68859;BME280;55864;49.238;8.092;2023-05-24T02:13:41;99808.88;;;14.40;54.39
68859;BME280;55864;49.238;8.092;2023-05-24T02:15:41;99808.75;;;14.42;55.02
68859;BME280;55864;49.238;8.092;2023-05-24T02:17:47;99810.88;;;14.38;54.95
68859;BME280;55864;49.238;8.092;2023-05-24T02:19:47;99809.22;;;14.37;54.65
68859;BME280;55864;49.238;8.092;2023-05-24T02:21:48;99805.75;;;14.37;54.31
68859;BME280;55864;49.238;8.092;2023-05-24T02:23:48;99807.72;;;14.35;54.98
68859;BME280;55864;49.238;8.092;2023-05-24T02:25:49;99812.31;;;14.33;54.42
68859;BME280;55864;49.238;8.092;2023-05-24T02:27:50;99810.34;;;14.35;55.38
68859;BME280;55864;49.238;8.092;2023-05-24T02:29:50;99807.88;;;14.33;55.59
68859;BME280;55864;49.238;8.092;2023-05-24T02:31:51;99814.31;;;14.31;55.15
68859;BME280;55864;49.238;8.092;2023-05-24T02:33:53;99812.66;;;14.30;55.97
68859;BME280;55864;49.238;8.092;2023-05-24T02:35:53;99813.06;;;14.25;55.80
68859;BME280;55864;49.238;8.092;2023-05-24T02:37:54;99818.69;;;14.22;55.83
68859;BME280;55864;49.238;8.092;2023-05-24T02:39:55;99814.53;;;14.19;56.23
68859;BME280;55864;49.238;8.092;2023-05-24T02:41:56;99817.03;;;14.21;56.73
68859;BME280;55864;49.238;8.092;2023-05-24T02:43:57;99810.09;;;14.20;56.41
68859;BME280;55864;49.238;8.092;2023-05-24T02:45:57;99811.88;;;14.19;56.54
68859;BME280;55864;49.238;8.092;2023-05-24T02:47:58;99808.56;;;14.17;56.33
68859;BME280;55864;49.238;8.092;2023-05-24T02:50:00;99806.94;;;14.16;56.83
68859;BME280;55864;49.238;8.092;2023-05-24T02:52:00;99793.72;;;14.16;55.72
68859;BME280;55864;49.238;8.092;2023-05-24T02:54:01;99812.38;;;14.15;56.07
68859;BME280;55864;49.238;8.092;2023-05-24T02:56:03;99803.63;;;14.14;56.49
68859;BME280;55864;49.238;8.092;2023-05-24T02:58:05;99817.66;;;14.15;56.14
68859;BME280;55864;49.238;8.092;2023-05-24T03:00:08;99810.88;;;14.12;56.50
68859;BME280;55864;49.238;8.092;2023-05-24T03:02:09;99807.56;;;14.10;55.70
68859;BME280;55864;49.238;8.092;2023-05-24T03:04:10;99808.69;;;14.08;55.52
68859;BME280;55864;49.238;8.092;2023-05-24T03:06:12;99808.84;;;14.06;56.41
68859;BME280;55864;49.238;8.092;2023-05-24T03:08:13;99800.91;;;14.06;56.22
68859;BME280;55864;49.238;8.092;2023-05-24T03:10:14;99803.03;;;14.03;55.89
68859;BME280;55864;49.238;8.092;2023-05-24T03:12:22;99804.56;;;14.05;56.65
68859;BME280;55864;49.238;8.092;2023-05-24T03:14:49;99805.22;;;14.07;55.99
68859;BME280;55864;49.238;8.092;2023-05-24T03:16:54;99802.59;;;14.07;56.10
68859;BME280;55864;49.238;8.092;2023-05-24T03:19:02;99798.25;;;13.98;55.35
68859;BME280;55864;49.238;8.092;2023-05-24T03:21:07;99795.75;;;13.97;55.47
68859;BME280;55864;49.238;8.092;2023-05-24T03:23:12;99803.81;;;13.95;55.36
68859;BME280;55864;49.238;8.092;2023-05-24T03:25:14;99796.22;;;13.92;55.11
68859;BME280;55864;49.238;8.092;2023-05-24T03:27:16;99797.88;;;13.93;55.42
68859;BME280;55864;49.238;8.092;2023-05-24T03:29:22;99793.94;;;13.97;55.40
68859;BME280;55864;49.238;8.092;2023-05-24T03:31:37;99794.00;;;14.31;53.53
68859;BME280;55864;49.238;8.092;2023-05-24T03:33:43;99791.06;;;14.76;52.67
68859;BME280;55864;49.238;8.092;2023-05-24T03:35:54;99794.59;;;15.00;51.40
68859;BME280;55864;49.238;8.092;2023-05-24T03:37:59;99801.84;;;15.06;51.39
68859;BME280;55864;49.238;8.092;2023-05-24T03:40:11;99797.03;;;14.94;51.84
68859;BME280;55864;49.238;8.092;2023-05-24T03:42:48;99807.56;;;14.70;51.61
68859;BME280;55864;49.238;8.092;2023-05-24T03:44:56;99808.63;;;14.51;52.63
68859;BME280;55864;49.238;8.092;2023-05-24T03:47:07;99813.53;;;14.38;52.71
68859;BME280;55864;49.238;8.092;2023-05-24T03:49:14;99821.84;;;14.26;54.00
68859;BME280;55864;49.238;8.092;2023-05-24T03:51:30;99815.19;;;14.13;53.96
68859;BME280;55864;49.238;8.092;2023-05-24T03:53:33;99821.09;;;14.07;54.34
68859;BME280;55864;49.238;8.092;2023-05-24T03:55:38;99818.06;;;14.02;54.18
68859;BME280;55864;49.238;8.092;2023-05-24T03:57:46;99820.00;;;13.92;54.06
68859;BME280;55864;49.238;8.092;2023-05-24T03:59:47;99823.41;;;13.85;54.85
68859;BME280;55864;49.238;8.092;2023-05-24T04:01:48;99820.84;;;13.75;54.58
68859;BME280;55864;49.238;8.092;2023-05-24T04:03:49;99822.97;;;13.72;54.91
68859;BME280;55864;49.238;8.092;2023-05-24T04:05:49;99821.91;;;13.65;54.31
68859;BME280;55864;49.238;8.092;2023-05-24T04:07:50;99821.22;;;13.63;55.17
68859;BME280;55864;49.238;8.092;2023-05-24T04:09:52;99822.91;;;13.64;55.96
68859;BME280;55864;49.238;8.092;2023-05-24T04:11:54;99824.84;;;13.62;54.79
68859;BME280;55864;49.238;8.092;2023-05-24T04:13:54;99828.41;;;13.53;54.83
68859;BME280;55864;49.238;8.092;2023-05-24T04:15:55;99826.59;;;13.53;55.48
68859;BME280;55864;49.238;8.092;2023-05-24T04:17:56;99830.06;;;13.54;55.23
68859;BME280;55864;49.238;8.092;2023-05-24T04:19:56;99837.31;;;13.52;54.94
68859;BME280;55864;49.238;8.092;2023-05-24T04:21:57;99829.19;;;13.45;56.03
68859;BME280;55864;49.238;8.092;2023-05-24T04:23:57;99831.94;;;13.44;56.12
68859;BME280;55864;49.238;8.092;2023-05-24T04:25:58;99826.16;;;13.40;55.17
68859;BME280;55864;49.238;8.092;2023-05-24T04:28:00;99827.28;;;13.38;56.06
68859;BME280;55864;49.238;8.092;2023-05-24T04:30:01;99823.13;;;13.35;55.25
68859;BME280;55864;49.238;8.092;2023-05-24T04:32:01;99824.78;;;13.36;55.70
68859;BME280;55864;49.238;8.092;2023-05-24T04:34:02;99825.47;;;13.38;55.60
68859;BME280;55864;49.238;8.092;2023-05-24T04:36:04;99823.81;;;13.37;55.84
68859;BME280;55864;49.238;8.092;2023-05-24T04:38:04;99824.78;;;13.36;55.49
68859;BME280;55864;49.238;8.092;2023-05-24T04:40:06;99828.06;;;13.30;55.21
68859;BME280;55864;49.238;8.092;2023-05-24T04:42:06;99828.72;;;13.32;55.39
68859;BME280;55864;49.238;8.092;2023-05-24T04:44:08;99829.84;;;13.30;55.21
68859;BME280;55864;49.238;8.092;2023-05-24T04:46:09;99832.84;;;13.35;56.02
68859;BME280;55864;49.238;8.092;2023-05-24T04:48:10;99832.06;;;13.34;54.73
68859;BME280;55864;49.238;8.092;2023-05-24T04:50:10;99833.44;;;13.29;54.79
68859;BME280;55864;49.238;8.092;2023-05-24T04:52:11;99833.44;;;13.29;54.87
68859;BME280;55864;49.238;8.092;2023-05-24T04:54:11;99824.41;;;13.31;55.45
68859;BME280;55864;49.238;8.092;2023-05-24T04:56:12;99825.09;;;13.33;55.09
68859;BME280;55864;49.238;8.092;2023-05-24T04:58:13;99826.63;;;13.36;55.05
68859;BME280;55864;49.238;8.092;2023-05-24T05:00:15;99827.13;;;13.39;54.75
68859;BME280;55864;49.238;8.092;2023-05-24T05:02:16;99832.06;;;13.34;54.74
68859;BME280;55864;49.238;8.092;2023-05-24T05:04:17;99833.53;;;13.37;55.62
68859;BME280;55864;49.238;8.092;2023-05-24T05:06:18;99826.63;;;13.36;54.31
68859;BME280;55864;49.238;8.092;2023-05-24T05:08:18;99827.28;;;13.38;54.61
68859;BME280;55864;49.238;8.092;2023-05-24T05:10:19;99823.38;;;13.42;54.52
68859;BME280;55864;49.238;8.092;2023-05-24T05:12:19;99826.31;;;13.39;54.48
68859;BME280;55864;49.238;8.092;2023-05-24T05:14:20;99831.88;;;13.36;53.67
68859;BME280;55864;49.238;8.092;2023-05-24T05:16:22;99842.28;;;13.37;54.55
68859;BME280;55864;49.238;8.092;2023-05-24T05:18:22;99834.81;;;13.33;53.93
68859;BME280;55864;49.238;8.092;2023-05-24T05:20:23;99840.56;;;13.28;53.98
68859;BME280;55864;49.238;8.092;2023-05-24T05:22:23;99843.19;;;13.28;54.83
68859;BME280;55864;49.238;8.092;2023-05-24T05:24:24;99838.72;;;13.29;54.01
68859;BME280;55864;49.238;8.092;2023-05-24T05:26:25;99842.13;;;13.21;54.39
68859;BME280;55864;49.238;8.092;2023-05-24T05:28:25;99838.50;;;13.22;54.69
68859;BME280;55864;49.238;8.092;2023-05-24T05:30:26;99843.63;;;13.23;53.99
68859;BME280;55864;49.238;8.092;2023-05-24T05:32:28;99835.56;;;13.25;54.62
68859;BME280;55864;49.238;8.092;2023-05-24T05:34:28;99837.09;;;13.28;54.66
68859;BME280;55864;49.238;8.092;2023-05-24T05:36:29;99840.72;;;13.27;54.68
68859;BME280;55864;49.238;8.092;2023-05-24T05:38:29;99848.47;;;13.28;54.71
68859;BME280;55864;49.238;8.092;2023-05-24T05:40:30;99840.56;;;13.28;54.71
68859;BME280;55864;49.238;8.092;2023-05-24T05:42:30;99839.47;;;13.21;53.71
68859;BME280;55864;49.238;8.092;2023-05-24T05:44:31;99842.13;;;13.21;54.53
68859;BME280;55864;49.238;8.092;2023-05-24T05:46:31;99843.63;;;13.23;54.57
68859;BME280;55864;49.238;8.092;2023-05-24T05:48:33;99842.66;;;13.25;54.97
68859;BME280;55864;49.238;8.092;2023-05-24T05:50:34;99843.19;;;13.28;54.61
68859;BME280;55864;49.238;8.092;2023-05-24T05:52:34;99840.72;;;13.27;53.79
68859;BME280;55864;49.238;8.092;2023-05-24T05:54:35;99849.75;;;13.24;55.08
68859;BME280;55864;49.238;8.092;2023-05-24T05:56:35;99852.38;;;13.24;54.60
68859;BME280;55864;49.238;8.092;2023-05-24T05:58:36;99844.84;;;13.29;55.15
68859;BME280;55864;49.238;8.092;2023-05-24T06:00:36;99843.72;;;13.32;54.52
68859;BME280;55864;49.238;8.092;2023-05-24T06:02:37;99847.88;;;13.34;54.74
68859;BME280;55864;49.238;8.092;2023-05-24T06:04:39;99850.88;;;13.39;55.04
68859;BME280;55864;49.238;8.092;2023-05-24T06:06:39;99852.25;;;13.43;54.63
68859;BME280;55864;49.238;8.092;2023-05-24T06:08:40;99854.06;;;13.43;53.75
68859;BME280;55864;49.238;8.092;2023-05-24T06:10:40;99856.44;;;13.36;54.04
68859;BME280;55864;49.238;8.092;2023-05-24T06:12:41;99852.69;;;13.39;54.51
68859;BME280;55864;49.238;8.092;2023-05-24T06:14:41;99855.03;;;13.42;54.12
68859;BME280;55864;49.238;8.092;2023-05-24T06:16:42;99860.16;;;13.43;54.44
68859;BME280;55864;49.238;8.092;2023-05-24T06:18:42;99857.38;;;13.45;53.86
68859;BME280;55864;49.238;8.092;2023-05-24T06:20:44;99864.84;;;13.49;54.65
68859;BME280;55864;49.238;8.092;2023-05-24T06:22:45;99860.84;;;13.45;54.82
68859;BME280;55864;49.238;8.092;2023-05-24T06:24:45;99856.69;;;13.43;54.03
68859;BME280;55864;49.238;8.092;2023-05-24T06:26:46;99859.84;;;13.46;54.65
68859;BME280;55864;49.238;8.092;2023-05-24T06:28:46;99861.38;;;13.49;54.37
68859;BME280;55864;49.238;8.092;2023-05-24T06:30:47;99862.56;;;13.54;54.80
68859;BME280;55864;49.238;8.092;2023-05-24T06:32:47;99866.19;;;13.53;53.78
68859;BME280;55864;49.238;8.092;2023-05-24T06:34:48;99865.53;;;13.51;54.37
68859;BME280;55864;49.238;8.092;2023-05-24T06:36:50;99865.53;;;13.51;53.57
68859;BME280;55864;49.238;8.092;2023-05-24T06:38:50;99864.69;;;13.51;53.29
68859;BME280;55864;49.238;8.092;2023-05-24T06:40:51;99865.66;;;13.50;53.89
68859;BME280;55864;49.238;8.092;2023-05-24T06:42:51;99871.78;;;13.50;53.96
68859;BME280;55864;49.238;8.092;2023-05-24T06:44:52;99872.44;;;13.52;53.59
68859;BME280;55864;49.238;8.092;2023-05-24T06:46:52;99873.06;;;13.46;53.73
68859;BME280;55864;49.238;8.092;2023-05-24T06:48:53;99877.81;;;13.43;54.45
68859;BME280;55864;49.238;8.092;2023-05-24T06:50:53;99876.69;;;13.45;54.71
68859;BME280;55864;49.238;8.092;2023-05-24T06:52:55;99881.66;;;13.48;54.64
68859;BME280;55864;49.238;8.092;2023-05-24T06:54:56;99876.63;;;13.55;54.98
68859;BME280;55864;49.238;8.092;2023-05-24T06:56:56;99878.78;;;13.59;55.19
68859;BME280;55864;49.238;8.092;2023-05-24T06:58:57;99872.91;;;13.65;55.15
68859;BME280;55864;49.238;8.092;2023-05-24T07:00:57;99877.88;;;13.68;55.58
68859;BME280;55864;49.238;8.092;2023-05-24T07:02:58;99872.06;;;13.65;55.38
68859;BME280;55864;49.238;8.092;2023-05-24T07:04:59;99882.41;;;13.58;54.93
68859;BME280;55864;49.238;8.092;2023-05-24T07:06:59;99879.38;;;13.53;54.50
68859;BME280;55864;49.238;8.092;2023-05-24T07:09:01;99885.97;;;13.49;54.51
68859;BME280;55864;49.238;8.092;2023-05-24T07:11:02;99885.28;;;13.47;54.68
68859;BME280;55864;49.238;8.092;2023-05-24T07:13:03;99887.75;;;13.49;55.78
68859;BME280;55864;49.238;8.092;2023-05-24T07:15:04;99887.59;;;13.50;56.14
68859;BME280;55864;49.238;8.092;2023-05-24T07:17:05;99892.63;;;13.44;55.67
68859;BME280;55864;49.238;8.092;2023-05-24T07:19:05;99891.16;;;13.41;55.34
68859;BME280;55864;49.238;8.092;2023-05-24T07:21:06;99899.06;;;13.41;55.30
68859;BME280;55864;49.238;8.092;2023-05-24T07:23:06;99891.44;;;13.38;56.18
68859;BME280;55864;49.238;8.092;2023-05-24T07:25:09;99895.59;;;13.41;56.37
68859;BME280;55864;49.238;8.092;2023-05-24T07:27:09;99896.81;;;13.46;56.64
68859;BME280;55864;49.238;8.092;2023-05-24T07:29:10;99889.41;;;13.50;55.92
68859;BME280;55864;49.238;8.092;2023-05-24T07:31:10;99884.66;;;13.53;55.43
68859;BME280;55864;49.238;8.092;2023-05-24T07:33:11;99889.81;;;13.55;55.14
68859;BME280;55864;49.238;8.092;2023-05-24T07:35:11;99893.66;;;13.60;55.50
68859;BME280;55864;49.238;8.092;2023-05-24T07:37:12;99898.94;;;13.60;54.97
68859;BME280;55864;49.238;8.092;2023-05-24T07:39:12;99902.69;;;13.58;54.76
68859;BME280;55864;49.238;8.092;2023-05-24T07:41:14;99907.53;;;13.62;54.53
68859;BME280;55864;49.238;8.092;2023-05-24T07:43:15;99896.28;;;13.60;53.47
68859;BME280;55864;49.238;8.092;2023-05-24T07:45:15;99908.22;;;13.64;53.13
68859;BME280;55864;49.238;8.092;2023-05-24T07:47:16;99909.88;;;13.65;52.94
68859;BME280;55864;49.238;8.092;2023-05-24T07:49:16;99897.03;;;13.70;52.84
68859;BME280;55864;49.238;8.092;2023-05-24T07:51:17;99901.72;;;13.76;53.09
68859;BME280;55864;49.238;8.092;2023-05-24T07:53:18;99906.53;;;13.81;51.68
68859;BME280;55864;49.238;8.092;2023-05-24T07:55:18;99901.47;;;13.87;52.13
68859;BME280;55864;49.238;8.092;2023-05-24T07:57:20;99898.22;;;13.93;51.46
68859;BME280;55864;49.238;8.092;2023-05-24T07:59:21;99901.09;;;14.00;51.08
68859;BME280;55864;49.238;8.092;2023-05-24T08:01:21;99896.03;;;14.06;50.08
68859;BME280;55864;49.238;8.092;2023-05-24T08:03:21;99899.72;;;14.13;50.01
68859;BME280;55864;49.238;8.092;2023-05-24T08:05:22;99893.13;;;14.17;49.31
68859;BME280;55864;49.238;8.092;2023-05-24T08:07:23;99887.31;;;14.32;49.64
68859;BME280;55864;49.238;8.092;2023-05-24T08:09:23;99891.09;;;14.88;49.05
68859;BME280;55864;49.238;8.092;2023-05-24T08:11:24;99887.94;;;15.27;47.44
68859;BME280;55864;49.238;8.092;2023-05-24T08:13:25;99886.84;;;15.61;46.49
68859;BME280;55864;49.238;8.092;2023-05-24T08:15:26;99886.34;;;15.58;46.23
68859;BME280;55864;49.238;8.092;2023-05-24T08:17:26;99893.81;;;15.54;45.81
68859;BME280;55864;49.238;8.092;2023-05-24T08:19:28;99885.69;;;15.48;46.24
68859;BME280;55864;49.238;8.092;2023-05-24T08:21:28;99889.28;;;15.39;46.13
68859;BME280;55864;49.238;8.092;2023-05-24T08:23:29;99887.44;;;15.31;46.69
68859;BME280;55864;49.238;8.092;2023-05-24T08:25:30;99878.81;;;15.29;46.69
68859;BME280;55864;49.238;8.092;2023-05-24T08:27:30;99879.66;;;15.30;47.47
68859;BME280;55864;49.238;8.092;2023-05-24T08:29:32;99880.03;;;15.35;46.69
68859;BME280;55864;49.238;8.092;2023-05-24T08:31:32;99877.03;;;15.38;47.27
68859;BME280;55864;49.238;8.092;2023-05-24T08:33:33;99880.88;;;15.43;47.25
68859;BME280;55864;49.238;8.092;2023-05-24T08:35:33;99880.25;;;15.49;46.23
68859;BME280;55864;49.238;8.092;2023-05-24T08:37:34;99884.38;;;15.52;45.56
68859;BME280;55864;49.238;8.092;2023-05-24T08:39:34;99879.91;;;15.52;46.00
68859;BME280;55864;49.238;8.092;2023-05-24T08:41:35;99895.78;;;15.52;44.87
68859;BME280;55864;49.238;8.092;2023-05-24T08:43:36;99889.81;;;15.50;44.75
68859;BME280;55864;49.238;8.092;2023-05-24T08:45:38;99890.00;;;15.57;45.95
68859;BME280;55864;49.238;8.092;2023-05-24T08:47:40;99890.50;;;15.60;44.97
68859;BME280;55864;49.238;8.092;2023-05-24T08:49:40;99898.47;;;15.60;44.93
68859;BME280;55864;49.238;8.092;2023-05-24T08:51:42;99893.47;;;15.65;44.63
68859;BME280;55864;49.238;8.092;2023-05-24T08:53:43;99902.09;;;15.67;44.68
68859;BME280;55864;49.238;8.092;2023-05-24T08:55:44;99895.19;;;15.74;45.06
68859;BME280;55864;49.238;8.092;2023-05-24T08:57:45;99888.53;;;15.78;45.04
68859;BME280;55864;49.238;8.092;2023-05-24T08:59:46;99892.53;;;15.90;42.48
68859;BME280;55864;49.238;8.092;2023-05-24T09:01:52;99890.53;;;15.92;42.19
68859;BME280;55864;49.238;8.092;2023-05-24T09:03:52;99895.50;;;15.95;41.83
68859;BME280;55864;49.238;8.092;2023-05-24T09:05:54;99889.88;;;15.98;41.30
68859;BME280;55864;49.238;8.092;2023-05-24T09:07:55;99902.13;;;15.99;41.36
68859;BME280;55864;49.238;8.092;2023-05-24T09:10:00;99893.84;;;16.02;41.63
68859;BME280;55864;49.238;8.092;2023-05-24T09:12:04;99901.16;;;16.09;41.13
68859;BME280;55864;49.238;8.092;2023-05-24T09:14:04;99900.13;;;16.18;40.58
68859;BME280;55864;49.238;8.092;2023-05-24T09:16:05;99903.28;;;16.21;40.48
68859;BME280;55864;49.238;8.092;2023-05-24T09:18:07;99903.41;;;16.28;41.34
68859;BME280;55864;49.238;8.092;2023-05-24T09:20:09;99897.63;;;16.40;40.90
68859;BME280;55864;49.238;8.092;2023-05-24T09:22:10;99888.34;;;16.44;40.56
68859;BME280;55864;49.238;8.092;2023-05-24T09:24:12;99903.25;;;16.37;40.61
68859;BME280;55864;49.238;8.092;2023-05-24T09:26:13;99893.66;;;16.44;40.82
68859;BME280;55864;49.238;8.092;2023-05-24T09:28:14;99895.59;;;16.74;40.49
68859;BME280;55864;49.238;8.092;2023-05-24T09:30:15;99890.97;;;17.07;38.19
68859;BME280;55864;49.238;8.092;2023-05-24T09:32:17;99892.09;;;17.43;37.41
68859;BME280;55864;49.238;8.092;2023-05-24T09:34:19;99905.09;;;17.38;35.93
68859;BME280;55864;49.238;8.092;2023-05-24T09:36:20;99899.81;;;17.30;37.51
68859;BME280;55864;49.238;8.092;2023-05-24T09:38:20;99895.84;;;17.26;37.40
68859;BME280;55864;49.238;8.092;2023-05-24T09:40:22;99893.25;;;17.18;38.17
68859;BME280;55864;49.238;8.092;2023-05-24T09:42:24;99887.94;;;17.18;37.59
68859;BME280;55864;49.238;8.092;2023-05-24T09:44:25;99892.72;;;17.23;37.51
68859;BME280;55864;49.238;8.092;2023-05-24T09:46:26;99888.41;;;17.22;37.69
68859;BME280;55864;49.238;8.092;2023-05-24T09:48:26;99892.41;;;17.18;37.50
68859;BME280;55864;49.238;8.092;2023-05-24T09:50:28;99882.28;;;17.21;36.75
68859;BME280;55864;49.238;8.092;2023-05-24T09:52:29;99892.91;;;17.21;35.95
68859;BME280;55864;49.238;8.092;2023-05-24T09:54:31;99885.28;;;17.18;35.49
68859;BME280;55864;49.238;8.092;2023-05-24T09:56:32;99887.28;;;17.16;36.55
68859;BME280;55864;49.238;8.092;2023-05-24T09:58:33;99883.91;;;17.22;36.77
68859;BME280;55864;49.238;8.092;2023-05-24T10:00:35;99883.69;;;17.32;35.93
68859;BME280;55864;49.238;8.092;2023-05-24T10:02:35;99890.03;;;17.31;36.44
68859;BME280;55864;49.238;8.092;2023-05-24T10:04:36;99875.91;;;17.30;37.43
68859;BME280;55864;49.238;8.092;2023-05-24T10:06:40;99873.06;;;17.32;37.54
68859;BME280;55864;49.238;8.092;2023-05-24T10:08:41;99871.06;;;17.34;37.56
68859;BME280;55864;49.238;8.092;2023-05-24T10:10:42;99873.41;;;17.37;37.27
68859;BME280;55864;49.238;8.092;2023-05-24T10:12:45;99879.84;;;17.42;37.02
68859;BME280;55864;49.238;8.092;2023-05-24T10:14:46;99866.84;;;17.47;36.71
68859;BME280;55864;49.238;8.092;2023-05-24T10:16:47;99871.03;;;17.50;37.43
68859;BME280;55864;49.238;8.092;2023-05-24T10:18:48;99869.34;;;17.49;37.91
68859;BME280;55864;49.238;8.092;2023-05-24T10:20:49;99867.19;;;17.52;38.35
68859;BME280;55864;49.238;8.092;2023-05-24T10:22:58;99866.00;;;17.55;37.69
68859;BME280;55864;49.238;8.092;2023-05-24T10:24:59;99862.88;;;17.74;38.39
68859;BME280;55864;49.238;8.092;2023-05-24T10:27:03;99865.81;;;18.02;37.56
68859;BME280;55864;49.238;8.092;2023-05-24T10:29:06;99863.13;;;18.39;36.08
68859;BME280;55864;49.238;8.092;2023-05-24T10:31:10;99852.81;;;18.36;35.58
68859;BME280;55864;49.238;8.092;2023-05-24T10:33:12;99862.09;;;18.25;36.04
68859;BME280;55864;49.238;8.092;2023-05-24T10:35:13;99857.09;;;18.08;35.32
68859;BME280;55864;49.238;8.092;2023-05-24T10:37:16;99852.22;;;17.97;36.70
68859;BME280;55864;49.238;8.092;2023-05-24T10:39:20;99860.63;;;17.85;36.48
68859;BME280;55864;49.238;8.092;2023-05-24T10:41:24;99863.34;;;17.77;37.87
68859;BME280;55864;49.238;8.092;2023-05-24T10:43:25;99876.34;;;17.72;40.01
68859;BME280;55864;49.238;8.092;2023-05-24T10:45:30;99866.13;;;17.61;38.06
68859;BME280;55864;49.238;8.092;2023-05-24T10:47:31;99854.47;;;17.62;36.80